Shinebone, Alabama
Current Conditions -  °F | °C
As of 4:53 AM on Thursday 23 Oct 2014 (Local Time) from KANB Reporting Station
Clear Clear  
Wind Chill: 41°   Ceiling: Unl
Heat Index: 41°   Visibility: 10mi
Dew Point: 39°   Wind: 3mph
Humidity: 93%   Direction: 70°ENE
Pressure: 30.14"   Gusts: NA
Location:  33.3533°N, 85.7343°W
Report Text: KANB 230953Z AUTO 07003KT 10SM CLR 05/04 A3014 RMK AO2 SLP206 T00500039
Loading
Personal Weather Stations






























Interactive Weather Map
Tropical Storm Tracking
New forecast layout! Learn more

10-Day Weather Forecast

Advertisements
Track Severe Weather on mobile